Time;durP1;ratioP1;P1;durP2;ratioP2;P2;SDS_P1;SDS_P2;PMS_P1;PMS_P2;Temp;Humidity;BMP_temperature;BMP_pressure;BME280_temperature;BME280_humidity;BME280_pressure;Samples;Min_cycle;Max_cycle;Signal;HPM_P1;HPM_P2
2022/01/30 00:01:42;;;;;;;46.17;6.55;;;;;;;;;;5137369;27;20088;-58
2022/01/30 00:04:08;;;;;;;37.92;5.22;;;;;;;;;;5147013;27;20093;-59
2022/01/30 00:06:34;;;;;;;39.85;5.60;;;;;;;;;;5153222;27;20126;-60
2022/01/30 00:09:00;;;;;;;22.65;5.20;;;;;;;;;;5136653;27;20081;-59
2022/01/30 00:11:32;;;;;;;19.77;5.45;;;;;;;;;;5143334;27;20126;-60
2022/01/30 00:14:00;;;;;;;26.65;4.47;;;;;;;;;;5150101;27;20133;-59
2022/01/30 00:16:31;;;;;;;19.40;3.85;;;;;;;;;;5154046;27;20039;-59
2022/01/30 00:24:00;;;;;;;15.13;3.47;;;;;;;;;;5148356;27;20047;-60
2022/01/30 00:26:30;;;;;;;7.10;2.65;;;;;;;;;;5148829;27;20091;-60
2022/01/30 00:28:56;;;;;;;14.00;3.40;;;;;;;;;;5147429;27;20047;-60
2022/01/30 00:31:24;;;;;;;18.48;4.22;;;;;;;;;;5146130;27;20491;-60
2022/01/30 00:33:50;;;;;;;;;;;;;;;;;;5155487;27;20051;-60
2022/01/30 00:36:16;;;;;;;21.90;4.70;;;;;;;;;;5152677;27;19919;-60
2022/01/30 00:38:42;;;;;;;33.72;5.07;;;;;;;;;;5167775;27;20047;-60
2022/01/30 00:41:08;;;;;;;26.77;5.45;;;;;;;;;;5166664;27;20042;-60
2022/01/30 00:43:35;;;;;;;13.68;3.72;;;;;;;;;;5152708;27;20074;-60
2022/01/30 00:46:01;;;;;;;19.95;3.58;;;;;;;;;;5165956;27;20501;-59
2022/01/30 00:48:27;;;;;;;14.50;3.45;;;;;;;;;;5162418;27;20099;-59
2022/01/30 00:50:53;;;;;;;19.08;3.38;;;;;;;;;;5152523;27;20035;-60
2022/01/30 00:53:20;;;;;;;13.75;2.63;;;;;;;;;;5152436;27;20548;-59
2022/01/30 00:55:46;;;;;;;23.13;5.53;;;;;;;;;;5154049;27;20510;-59
2022/01/30 00:58:12;;;;;;;42.38;4.22;;;;;;;;;;5167445;27;20056;-59
2022/01/30 01:00:39;;;;;;;23.92;4.93;;;;;;;;;;5167286;27;20428;-58
2022/01/30 01:03:05;;;;;;;21.10;4.43;;;;;;;;;;5149719;27;20039;-59
2022/01/30 01:05:33;;;;;;;27.05;6.10;;;;;;;;;;5146394;27;20062;-59
2022/01/30 01:08:08;;;;;;;35.58;5.60;;;;;;;;;;5149426;27;20047;-59
2022/01/30 01:10:46;;;;;;;29.17;5.85;;;;;;;;;;5125887;28;20046;-59
2022/01/30 01:13:42;;;;;;;;;;;;;;;;;;5126462;28;20157;-59
2022/01/30 01:24:04;;;;;;;41.55;7.82;;;;;;;;;;5147595;27;20039;-59
2022/01/30 01:26:30;;;;;;;39.20;6.30;;;;;;;;;;5146580;27;20059;-60
2022/01/30 01:28:57;;;;;;;37.63;5.68;;;;;;;;;;5145969;27;20061;-59
2022/01/30 01:31:23;;;;;;;45.70;7.60;;;;;;;;;;5145304;27;20072;-59
2022/01/30 01:34:13;;;;;;;37.85;6.28;;;;;;;;;;5149002;27;20043;-59
2022/01/30 01:36:39;;;;;;;34.80;6.22;;;;;;;;;;5166297;27;20068;-59
2022/01/30 01:39:05;;;;;;;41.55;5.93;;;;;;;;;;5166702;27;20091;-60
2022/01/30 01:41:33;;;;;;;32.88;6.88;;;;;;;;;;5166737;27;20094;-59
2022/01/30 01:43:59;;;;;;;20.10;3.60;;;;;;;;;;5146563;27;20051;-59
2022/01/30 01:46:30;;;;;;;34.58;5.38;;;;;;;;;;5145634;27;20054;-59
2022/01/30 01:48:56;;;;;;;42.03;6.25;;;;;;;;;;5146072;27;20051;-59
2022/01/30 01:51:24;;;;;;;23.20;4.88;;;;;;;;;;5145180;27;20505;-59
2022/01/30 01:53:50;;;;;;;;;;;;;;;;;;5147244;27;20072;-60
2022/01/30 01:56:17;;;;;;;28.95;6.28;;;;;;;;;;5145948;27;19919;-59
2022/01/30 01:58:43;;;;;;;29.48;5.35;;;;;;;;;;5145618;27;20100;-59
2022/01/30 02:01:09;;;;;;;28.20;5.13;;;;;;;;;;5145272;27;20039;-59
2022/01/30 02:03:40;;;;;;;33.15;6.57;;;;;;;;;;5161395;27;20047;-59
2022/01/30 02:06:09;;;;;;;35.10;6.57;;;;;;;;;;5165483;27;20058;-59
2022/01/30 02:08:39;;;;;;;23.17;4.82;;;;;;;;;;5166274;27;20061;-59
2022/01/30 02:11:16;;;;;;;32.00;6.30;;;;;;;;;;5166529;27;20481;-58
2022/01/30 02:26:58;;;;;;;22.08;5.70;;;;;;;;;;5145281;28;20054;-59
2022/01/30 02:29:24;;;;;;;31.25;5.53;;;;;;;;;;5145386;28;20117;-59
2022/01/30 02:31:51;;;;;;;21.65;4.63;;;;;;;;;;5145202;28;20054;-59
2022/01/30 02:34:17;;;;;;;32.58;7.10;;;;;;;;;;5159999;27;20513;-59
2022/01/30 02:36:50;;;;;;;40.20;6.18;;;;;;;;;;5165460;27;20038;-59
2022/01/30 02:39:18;;;;;;;29.98;6.70;;;;;;;;;;5166139;27;20121;-58
2022/01/30 02:41:44;;;;;;;24.88;5.80;;;;;;;;;;5165884;27;20074;-58
2022/01/30 02:44:20;;;;;;;36.42;8.98;;;;;;;;;;5154883;27;20078;-59
2022/01/30 02:46:49;;;;;;;32.63;7.72;;;;;;;;;;5149266;27;20043;-59
2022/01/30 02:51:53;;;;;;;42.03;7.50;;;;;;;;;;5148610;27;20130;-58
2022/01/30 02:54:20;;;;;;;43.63;7.20;;;;;;;;;;5163950;27;20105;-58
2022/01/30 02:56:46;;;;;;;44.15;8.63;;;;;;;;;;5169802;27;20043;-59
2022/01/30 02:59:12;;;;;;;54.63;8.75;;;;;;;;;;5169891;27;20042;-58
2022/01/30 03:01:39;;;;;;;44.63;8.50;;;;;;;;;;5167913;27;20066;-58
2022/01/30 03:04:05;;;;;;;40.78;8.57;;;;;;;;;;5169881;27;20106;-58
2022/01/30 03:06:31;;;;;;;55.78;8.85;;;;;;;;;;5168718;27;20051;-57
2022/01/30 03:08:58;;;;;;;37.55;7.32;;;;;;;;;;5169694;27;20046;-58
2022/01/30 03:11:25;;;;;;;38.83;7.53;;;;;;;;;;5168280;27;20039;-58
2022/01/30 03:13:51;;;;;;;47.03;8.40;;;;;;;;;;5148711;27;20046;-58
2022/01/30 03:16:17;;;;;;;41.70;7.15;;;;;;;;;;5148825;27;20043;-58
2022/01/30 03:18:44;;;;;;;43.90;7.97;;;;;;;;;;5148775;27;20043;-59
2022/01/30 03:21:10;;;;;;;46.17;7.47;;;;;;;;;;5147899;27;20047;-60
2022/01/30 03:23:38;;;;;;;50.58;9.32;;;;;;;;;;5168039;27;20092;-60
2022/01/30 03:26:04;;;;;;;43.90;7.70;;;;;;;;;;5166717;27;20050;-60
2022/01/30 03:28:32;;;;;;;42.03;7.97;;;;;;;;;;5154718;27;20031;-60
2022/01/30 03:31:02;;;;;;;50.38;8.55;;;;;;;;;;5168117;27;20054;-59
2022/01/30 03:33:28;;;;;;;39.72;7.55;;;;;;;;;;5169135;27;20049;-59
2022/01/30 03:35:55;;;;;;;35.28;6.35;;;;;;;;;;5168685;27;20060;-58
2022/01/30 03:38:22;;;;;;;50.20;8.52;;;;;;;;;;5151800;27;20050;-58
2022/01/30 03:40:49;;;;;;;53.20;7.97;;;;;;;;;;5132481;27;20077;-58
2022/01/30 03:43:15;;;;;;;43.67;6.82;;;;;;;;;;5127846;28;20052;-59
2022/01/30 03:45:41;;;;;;;64.97;8.35;;;;;;;;;;5129307;27;20068;-58
2022/01/30 03:48:07;;;;;;;58.50;11.60;;;;;;;;;;5169106;27;20129;-58
2022/01/30 03:50:34;;;;;;;44.47;8.02;;;;;;;;;;5168825;27;20047;-58
2022/01/30 03:53:00;;;;;;;49.88;9.02;;;;;;;;;;5168042;27;20047;-58
2022/01/30 03:55:26;;;;;;;48.88;8.25;;;;;;;;;;5168116;27;20131;-58
2022/01/30 03:57:52;;;;;;;48.80;8.93;;;;;;;;;;5149328;27;20051;-58
2022/01/30 04:00:19;;;;;;;54.20;9.88;;;;;;;;;;5147473;27;20557;-60
2022/01/30 04:02:46;;;;;;;52.97;7.80;;;;;;;;;;5147784;27;20043;-59
2022/01/30 04:05:12;;;;;;;54.15;6.85;;;;;;;;;;5147386;27;20126;-59
2022/01/30 04:07:38;;;;;;;36.92;7.97;;;;;;;;;;5166277;27;20100;-60
2022/01/30 04:10:06;;;;;;;54.10;7.10;;;;;;;;;;5168702;27;20035;-60
2022/01/30 04:12:32;;;;;;;39.47;8.05;;;;;;;;;;5168542;27;20046;-60
2022/01/30 04:14:59;;;;;;;46.67;9.15;;;;;;;;;;5168045;27;20039;-60
2022/01/30 04:17:25;;;;;;;45.88;8.98;;;;;;;;;;5150877;27;20242;-60
2022/01/30 04:19:51;;;;;;;47.30;9.90;;;;;;;;;;5147399;27;20039;-60
2022/01/30 04:22:17;;;;;;;47.13;9.32;;;;;;;;;;5146737;27;20043;-60
2022/01/30 04:24:43;;;;;;;66.22;10.45;;;;;;;;;;5145489;27;20107;-58
2022/01/30 04:27:09;;;;;;;53.58;8.98;;;;;;;;;;5153844;27;20051;-58
2022/01/30 04:29:36;;;;;;;50.45;10.05;;;;;;;;;;5147350;27;20074;-60
2022/01/30 04:32:03;;;;;;;50.63;9.65;;;;;;;;;;5146930;27;20047;-58
2022/01/30 04:34:29;;;;;;;71.47;12.15;;;;;;;;;;5147288;27;20063;-59
2022/01/30 04:58:36;;;;;;;50.92;6.88;;;;;;;;;;5126089;28;20082;-58
2022/01/30 05:00:57;;;;;;;68.88;9.00;;;;;;;;;;5138521;27;20114;-59
2022/01/30 05:05:58;;;;;;;44.67;8.25;;;;;;;;;;5166082;27;20058;-59
2022/01/30 05:08:25;;;;;;;71.72;9.45;;;;;;;;;;5167388;27;20050;-59
2022/01/30 05:10:53;;;;;;;56.90;10.65;;;;;;;;;;5158748;27;20138;-60
2022/01/30 05:13:24;;;;;;;39.72;8.20;;;;;;;;;;5146656;27;20039;-60
2022/01/30 05:15:50;;;;;;;60.22;10.38;;;;;;;;;;5146080;27;20075;-58
2022/01/30 05:18:20;;;;;;;65.38;9.77;;;;;;;;;;5146569;27;20077;-58
2022/01/30 05:20:47;;;;;;;50.90;9.93;;;;;;;;;;5153165;27;20047;-58
2022/01/30 05:23:13;;;;;;;48.00;9.45;;;;;;;;;;5166889;27;20111;-59
2022/01/30 05:25:40;;;;;;;53.20;8.38;;;;;;;;;;5167100;27;20394;-58
2022/01/30 05:28:06;;;;;;;54.03;8.07;;;;;;;;;;5166969;27;20442;-58
2022/01/30 05:30:33;;;;;;;39.72;8.13;;;;;;;;;;5161423;27;20031;-58
2022/01/30 05:32:59;;;;;;;50.35;8.45;;;;;;;;;;5144711;27;20050;-58
2022/01/30 05:35:26;;;;;;;43.15;7.72;;;;;;;;;;5145252;27;20047;-58
2022/01/30 05:37:53;;;;;;;50.33;7.45;;;;;;;;;;5145358;27;20047;-59
2022/01/30 05:40:19;;;;;;;38.35;9.25;;;;;;;;;;5148872;27;20126;-59
2022/01/30 05:42:45;;;;;;;47.80;10.63;;;;;;;;;;5166667;27;20041;-58
2022/01/30 05:45:17;;;;;;;54.15;8.13;;;;;;;;;;5166692;27;20046;-58
2022/01/30 05:47:48;;;;;;;56.22;7.68;;;;;;;;;;5166434;27;20047;-59
2022/01/30 05:50:15;;;;;;;59.63;9.68;;;;;;;;;;5166842;27;20134;-58
2022/01/30 05:52:41;;;;;;;44.97;8.07;;;;;;;;;;5157196;27;20043;-59
2022/01/30 05:55:07;;;;;;;35.55;6.50;;;;;;;;;;5145821;27;20129;-58
2022/01/30 05:57:33;;;;;;;49.30;9.95;;;;;;;;;;5145791;27;20047;-59
2022/01/30 05:59:59;;;;;;;46.90;9.48;;;;;;;;;;5145532;27;20476;-58
2022/01/30 06:02:25;;;;;;;49.75;7.90;;;;;;;;;;5145413;27;20055;-59
2022/01/30 06:04:52;;;;;;;39.33;7.57;;;;;;;;;;5145891;27;20073;-59
2022/01/30 06:07:26;;;;;;;46.28;8.32;;;;;;;;;;5144730;27;20086;-59
2022/01/30 06:09:52;;;;;;;53.53;9.68;;;;;;;;;;5145537;27;20058;-59
2022/01/30 06:12:18;;;;;;;53.78;8.93;;;;;;;;;;5146015;27;20051;-58
2022/01/30 06:14:46;;;;;;;71.75;10.18;;;;;;;;;;5166479;27;20047;-59
2022/01/30 06:17:13;;;;;;;44.95;10.35;;;;;;;;;;5164669;27;20071;-58
2022/01/30 06:19:39;;;;;;;53.42;8.68;;;;;;;;;;5149250;27;20050;-59
2022/01/30 06:22:05;;;;;;;48.17;10.23;;;;;;;;;;5144710;27;20046;-59
2022/01/30 06:24:31;;;;;;;68.35;9.82;;;;;;;;;;5143571;28;20067;-58
2022/01/30 06:26:57;;;;;;;53.53;9.10;;;;;;;;;;5145273;28;20051;-59
2022/01/30 06:29:23;;;;;;;60.00;11.40;;;;;;;;;;5145365;28;20063;-58
2022/01/30 06:31:49;;;;;;;42.70;9.27;;;;;;;;;;5164580;27;20411;-58
2022/01/30 06:34:16;;;;;;;39.47;7.60;;;;;;;;;;5166240;27;20129;-59
2022/01/30 06:36:42;;;;;;;54.17;8.95;;;;;;;;;;5165540;27;20051;-57
2022/01/30 06:39:08;;;;;;;51.75;9.38;;;;;;;;;;5165944;27;20043;-58
2022/01/30 06:41:34;;;;;;;39.08;7.85;;;;;;;;;;5165763;27;20042;-60
2022/01/30 06:44:00;;;;;;;39.90;7.93;;;;;;;;;;5154819;27;20047;-57
2022/01/30 06:46:26;;;;;;;40.13;7.30;;;;;;;;;;5145119;28;20047;-60
2022/01/30 06:48:52;;;;;;;44.22;8.95;;;;;;;;;;5145037;28;20039;-58
2022/01/30 06:51:18;;;;;;;51.80;10.32;;;;;;;;;;5144292;27;20032;-58
2022/01/30 06:53:44;;;;;;;46.08;8.65;;;;;;;;;;5144801;28;20082;-60
2022/01/30 06:56:10;;;;;;;63.70;8.90;;;;;;;;;;5145231;28;20072;-59
2022/01/30 06:58:37;;;;;;;51.58;8.05;;;;;;;;;;5148722;27;20058;-60
2022/01/30 07:01:03;;;;;;;57.65;8.02;;;;;;;;;;5165799;27;20039;-59
2022/01/30 07:03:29;;;;;;;51.65;11.25;;;;;;;;;;5165705;27;20049;-58
2022/01/30 07:05:55;;;;;;;45.60;7.70;;;;;;;;;;5164991;27;20402;-59
2022/01/30 07:08:21;;;;;;;46.30;10.10;;;;;;;;;;5165832;27;20055;-58
2022/01/30 07:10:47;;;;;;;48.47;7.13;;;;;;;;;;5165625;27;20035;-59
2022/01/30 07:13:13;;;;;;;43.03;6.82;;;;;;;;;;5162651;27;21135;-59
2022/01/30 07:15:41;;;;;;;50.97;8.88;;;;;;;;;;5145079;28;20039;-58
2022/01/30 07:18:07;;;;;;;35.50;8.15;;;;;;;;;;5145052;27;20075;-58
2022/01/30 07:20:34;;;;;;;44.75;6.90;;;;;;;;;;5144912;28;20051;-58
2022/01/30 07:23:00;;;;;;;50.53;7.78;;;;;;;;;;5144238;27;20047;-58
2022/01/30 07:25:26;;;;;;;45.97;7.82;;;;;;;;;;5144647;28;20054;-58
2022/01/30 07:27:52;;;;;;;46.17;7.80;;;;;;;;;;5145064;27;20047;-58
2022/01/30 07:30:18;;;;;;;46.67;7.70;;;;;;;;;;5165032;27;20049;-59
2022/01/30 07:32:44;;;;;;;59.13;9.82;;;;;;;;;;5168917;27;20050;-58
2022/01/30 07:35:11;;;;;;;40.40;6.93;;;;;;;;;;5169191;27;20047;-58
2022/01/30 07:37:37;;;;;;;26.85;5.47;;;;;;;;;;5168547;27;20515;-59
2022/01/30 07:40:04;;;;;;;32.88;7.22;;;;;;;;;;5169004;27;20061;-59
2022/01/30 07:42:30;;;;;;;43.90;6.67;;;;;;;;;;5169402;27;20062;-58
2022/01/30 07:44:57;;;;;;;36.58;7.07;;;;;;;;;;5161220;27;20035;-59
2022/01/30 07:47:23;;;;;;;42.10;6.68;;;;;;;;;;5147873;27;20455;-58
2022/01/30 07:49:51;;;;;;;36.35;6.88;;;;;;;;;;5148136;27;20035;-58
2022/01/30 07:52:19;;;;;;;45.28;8.20;;;;;;;;;;5147507;27;20043;-58
2022/01/30 07:54:45;;;;;;;44.80;7.97;;;;;;;;;;5147982;27;20451;-58
2022/01/30 07:57:11;;;;;;;34.47;7.50;;;;;;;;;;5149032;27;20070;-58
2022/01/30 07:59:37;;;;;;;53.42;10.13;;;;;;;;;;5155992;27;20058;-58
2022/01/30 08:02:03;;;;;;;47.15;9.02;;;;;;;;;;5150135;27;20126;-58
2022/01/30 08:04:29;;;;;;;44.55;7.78;;;;;;;;;;5147350;27;20636;-58
2022/01/30 08:06:56;;;;;;;47.47;8.40;;;;;;;;;;5143379;27;20043;-58
2022/01/30 08:09:22;;;;;;;52.97;7.35;;;;;;;;;;5137104;27;20050;-59
2022/01/30 08:11:48;;;;;;;53.20;9.73;;;;;;;;;;5134164;27;20103;-58
2022/01/30 08:14:15;;;;;;;46.83;7.85;;;;;;;;;;5132114;27;20079;-58
2022/01/30 08:16:41;;;;;;;43.13;7.78;;;;;;;;;;5147312;27;20661;-57
2022/01/30 08:19:07;;;;;;;47.65;7.38;;;;;;;;;;5159714;27;20043;-58
2022/01/30 08:21:33;;;;;;;40.83;7.65;;;;;;;;;;5154113;27;20379;-58
2022/01/30 08:23:59;;;;;;;44.17;7.85;;;;;;;;;;5165017;27;20049;-57
2022/01/30 08:26:25;;;;;;;50.45;7.78;;;;;;;;;;5145527;27;20505;-59
2022/01/30 08:28:51;;;;;;;46.47;9.32;;;;;;;;;;5152794;27;20042;-59
2022/01/30 08:31:17;;;;;;;32.63;6.78;;;;;;;;;;5146136;27;20047;-58
2022/01/30 08:33:43;;;;;;;46.95;7.82;;;;;;;;;;5153774;27;20038;-59
2022/01/30 08:36:10;;;;;;;38.75;6.32;;;;;;;;;;5147673;27;20045;-59
2022/01/30 08:38:36;;;;;;;41.08;5.65;;;;;;;;;;5155079;27;20103;-59
2022/01/30 08:41:02;;;;;;;31.60;7.38;;;;;;;;;;5145708;27;20394;-59
2022/01/30 08:43:29;;;;;;;45.35;7.28;;;;;;;;;;5158996;27;20043;-59
2022/01/30 08:45:55;;;;;;;43.40;7.03;;;;;;;;;;5146775;27;20031;-59
2022/01/30 08:48:21;;;;;;;28.30;7.32;;;;;;;;;;5156112;27;20043;-59
2022/01/30 08:50:48;;;;;;;32.92;7.55;;;;;;;;;;5152270;27;20118;-58
2022/01/30 08:53:16;;;;;;;39.72;7.50;;;;;;;;;;5157497;27;20061;-59
2022/01/30 08:55:43;;;;;;;46.50;8.52;;;;;;;;;;5145983;27;20095;-59
2022/01/30 08:58:09;;;;;;;42.85;8.73;;;;;;;;;;5146359;27;20043;-59
2022/01/30 09:00:39;;;;;;;36.30;6.65;;;;;;;;;;5157990;27;20112;-59
2022/01/30 09:03:06;;;;;;;45.92;8.48;;;;;;;;;;5147523;27;20039;-59
2022/01/30 09:05:32;;;;;;;42.42;8.70;;;;;;;;;;5165472;27;20046;-59
2022/01/30 09:07:59;;;;;;;46.63;7.53;;;;;;;;;;5144936;27;20089;-58
2022/01/30 09:10:25;;;;;;;38.03;6.70;;;;;;;;;;5146191;27;20050;-58
2022/01/30 09:12:52;;;;;;;42.47;8.68;;;;;;;;;;5146052;27;20127;-59
2022/01/30 09:15:18;;;;;;;36.40;7.22;;;;;;;;;;5145153;27;20169;-59
2022/01/30 09:17:44;;;;;;;35.45;5.47;;;;;;;;;;5145539;27;20046;-58
2022/01/30 09:20:11;;;;;;;51.72;7.68;;;;;;;;;;5152805;27;20042;-58
2022/01/30 09:22:38;;;;;;;49.10;8.30;;;;;;;;;;5165857;27;20046;-58
2022/01/30 09:25:05;;;;;;;41.92;7.80;;;;;;;;;;5153300;27;20035;-58
2022/01/30 09:27:31;;;;;;;46.40;8.40;;;;;;;;;;5145976;27;20098;-58
2022/01/30 09:29:57;;;;;;;54.72;7.88;;;;;;;;;;5145649;27;20095;-59
2022/01/30 09:32:23;;;;;;;44.35;8.60;;;;;;;;;;5145749;27;20166;-59
2022/01/30 09:34:50;;;;;;;43.22;8.23;;;;;;;;;;5138576;27;20051;-58
2022/01/30 09:37:17;;;;;;;35.70;6.32;;;;;;;;;;5143972;27;20043;-58
2022/01/30 09:39:44;;;;;;;37.28;6.85;;;;;;;;;;5146696;27;20065;-59
2022/01/30 09:42:10;;;;;;;48.75;8.30;;;;;;;;;;5145778;27;20031;-59
2022/01/30 09:44:40;;;;;;;37.00;6.80;;;;;;;;;;5145447;27;20064;-58
2022/01/30 09:47:13;;;;;;;44.15;7.22;;;;;;;;;;5144390;27;20055;-59
2022/01/30 09:49:41;;;;;;;41.90;6.95;;;;;;;;;;5158131;27;20039;-58
2022/01/30 09:52:09;;;;;;;47.92;6.53;;;;;;;;;;5144315;27;20039;-59
2022/01/30 09:54:35;;;;;;;38.25;6.80;;;;;;;;;;5144670;27;20051;-59
2022/01/30 09:57:01;;;;;;;40.05;7.10;;;;;;;;;;5145444;27;20035;-58
2022/01/30 09:59:28;;;;;;;46.65;6.95;;;;;;;;;;5145965;27;20068;-58
2022/01/30 10:01:54;;;;;;;38.40;6.10;;;;;;;;;;5144728;27;20043;-58
2022/01/30 10:04:20;;;;;;;31.35;6.43;;;;;;;;;;5143415;27;20118;-58
2022/01/30 10:06:53;;;;;;;44.10;8.63;;;;;;;;;;5144212;27;20139;-58
2022/01/30 10:09:31;;;;;;;48.80;7.03;;;;;;;;;;5144262;27;20093;-58
2022/01/30 10:12:19;;;;;;;41.05;8.30;;;;;;;;;;5144734;27;20039;-60
2022/01/30 10:14:48;;;;;;;44.10;7.60;;;;;;;;;;5143338;27;20044;-58
2022/01/30 10:17:24;;;;;;;39.75;6.63;;;;;;;;;;5140102;27;20415;-58
2022/01/30 10:19:59;;;;;;;62.40;8.38;;;;;;;;;;5146248;27;20050;-58
2022/01/30 10:22:25;;;;;;;44.83;6.28;;;;;;;;;;5144807;27;20043;-58
2022/01/30 10:24:51;;;;;;;42.10;7.72;;;;;;;;;;5144593;27;20049;-58
2022/01/30 10:27:19;;;;;;;54.80;7.93;;;;;;;;;;5145224;27;20213;-58
2022/01/30 10:29:45;;;;;;;47.42;9.13;;;;;;;;;;5142699;27;20155;-59
2022/01/30 10:32:11;;;;;;;43.72;8.25;;;;;;;;;;5134016;27;20046;-58
2022/01/30 10:34:38;;;;;;;48.58;7.25;;;;;;;;;;5144541;28;20050;-58
2022/01/30 10:37:15;;;;;;;43.50;7.43;;;;;;;;;;5144246;28;20039;-58
2022/01/30 10:39:56;;;;;;;47.08;7.32;;;;;;;;;;5144389;28;20181;-58
2022/01/30 10:42:35;;;;;;;38.50;7.45;;;;;;;;;;5138901;28;20035;-57
2022/01/30 10:45:01;;;;;;;38.08;7.60;;;;;;;;;;5138402;28;20072;-58
2022/01/30 10:47:29;;;;;;;54.60;8.43;;;;;;;;;;5143852;27;20071;-58
2022/01/30 10:49:56;;;;;;;35.08;9.65;;;;;;;;;;5131104;27;20067;-58
2022/01/30 10:52:23;;;;;;;43.53;7.20;;;;;;;;;;5143861;27;20063;-58
2022/01/30 10:54:50;;;;;;;35.22;6.35;;;;;;;;;;5144670;27;20058;-58
2022/01/30 10:57:16;;;;;;;32.20;5.43;;;;;;;;;;5147980;27;20043;-58
2022/01/30 10:59:46;;;;;;;39.03;6.57;;;;;;;;;;5139692;27;20072;-58
2022/01/30 11:02:20;;;;;;;39.25;7.07;;;;;;;;;;5157481;27;20039;-58
2022/01/30 11:04:48;;;;;;;37.83;6.82;;;;;;;;;;5137973;27;20047;-59
2022/01/30 11:07:22;;;;;;;43.08;7.53;;;;;;;;;;5147731;27;20228;-58
2022/01/30 11:10:03;;;;;;;40.47;6.50;;;;;;;;;;5148400;27;20054;-58
2022/01/30 11:12:36;;;;;;;36.92;6.00;;;;;;;;;;5148412;27;20063;-59
2022/01/30 11:15:18;;;;;;;43.55;7.55;;;;;;;;;;5131662;27;20132;-58
2022/01/30 11:17:44;;;;;;;43.83;7.30;;;;;;;;;;5145018;27;20043;-57
2022/01/30 11:20:12;;;;;;;34.28;6.22;;;;;;;;;;5148131;27;20054;-58
2022/01/30 11:22:39;;;;;;;43.53;7.22;;;;;;;;;;5163525;27;20038;-58
2022/01/30 11:25:07;;;;;;;32.10;6.47;;;;;;;;;;5162237;27;20051;-58
2022/01/30 11:27:34;;;;;;;45.55;6.60;;;;;;;;;;5148699;27;20043;-58
2022/01/30 11:30:01;;;;;;;50.45;7.32;;;;;;;;;;5140355;27;20126;-58
2022/01/30 11:32:27;;;;;;;45.28;8.65;;;;;;;;;;5140146;27;20525;-59
2022/01/30 11:34:54;;;;;;;36.28;6.20;;;;;;;;;;5148880;27;20047;-58
2022/01/30 11:37:23;;;;;;;48.13;7.03;;;;;;;;;;5147929;27;20055;-58
2022/01/30 11:39:52;;;;;;;30.17;6.53;;;;;;;;;;5148353;27;20066;-57
2022/01/30 11:42:20;;;;;;;31.58;6.75;;;;;;;;;;5148105;27;20054;-59
2022/01/30 11:44:47;;;;;;;47.88;7.13;;;;;;;;;;5166209;27;20077;-58
2022/01/30 11:47:13;;;;;;;35.45;6.82;;;;;;;;;;5151004;27;20039;-58
2022/01/30 11:49:42;;;;;;;51.85;8.30;;;;;;;;;;5136159;27;20135;-58
2022/01/30 11:52:12;;;;;;;32.67;5.70;;;;;;;;;;5146753;27;20047;-58
2022/01/30 11:54:41;;;;;;;36.90;7.22;;;;;;;;;;5147097;27;20098;-58
2022/01/30 11:57:22;;;;;;;38.88;6.65;;;;;;;;;;5149698;27;20054;-58
2022/01/30 11:59:49;;;;;;;47.40;7.80;;;;;;;;;;5149985;27;20051;-58
2022/01/30 12:02:25;;;;;;;31.20;6.65;;;;;;;;;;5146749;27;20054;-58
2022/01/30 12:04:58;;;;;;;42.28;7.15;;;;;;;;;;5147169;27;20062;-58
2022/01/30 12:07:37;;;;;;;31.65;6.90;;;;;;;;;;5140468;27;20043;-57
2022/01/30 12:10:16;;;;;;;39.75;6.95;;;;;;;;;;5144111;27;20103;-58
2022/01/30 12:12:42;;;;;;;;;;;;;;;;;;5147109;27;20050;-58
2022/01/30 12:15:08;;;;;;;32.05;6.63;;;;;;;;;;5143916;27;20219;-58
2022/01/30 12:17:47;;;;;;;32.50;7.65;;;;;;;;;;5145670;27;20063;-57
2022/01/30 12:20:13;;;;;;;32.47;6.45;;;;;;;;;;5146968;27;20043;-58
2022/01/30 12:22:41;;;;;;;34.70;6.53;;;;;;;;;;5146841;27;20110;-59
2022/01/30 12:25:25;;;;;;;33.63;6.88;;;;;;;;;;5143979;27;20050;-59
2022/01/30 12:27:55;;;;;;;55.20;7.93;;;;;;;;;;5137144;27;20048;-57
2022/01/30 12:30:33;;;;;;;48.78;8.07;;;;;;;;;;5146699;27;20611;-58
2022/01/30 12:32:59;;;;;;;32.90;8.43;;;;;;;;;;5147375;27;20047;-58
2022/01/30 12:35:26;;;;;;;38.13;8.05;;;;;;;;;;5149630;27;20120;-59
2022/01/30 12:37:52;;;;;;;37.78;7.88;;;;;;;;;;5145986;27;20139;-58
2022/01/30 12:40:19;;;;;;;31.60;6.10;;;;;;;;;;5149487;27;20035;-58
2022/01/30 12:42:46;;;;;;;30.90;6.32;;;;;;;;;;5146476;27;20126;-58
2022/01/30 12:45:13;;;;;;;35.17;6.55;;;;;;;;;;5140239;27;20039;-58
2022/01/30 12:47:59;;;;;;;26.80;5.78;;;;;;;;;;5141004;27;20107;-58
2022/01/30 12:50:31;;;;;;;30.98;6.05;;;;;;;;;;5149804;27;20050;-58
2022/01/30 12:52:57;;;;;;;24.42;4.80;;;;;;;;;;5144626;27;20046;-58
2022/01/30 12:55:24;;;;;;;27.20;4.88;;;;;;;;;;5146258;27;20114;-58
2022/01/30 12:57:53;;;;;;;16.63;5.63;;;;;;;;;;5144917;27;20122;-59
2022/01/30 13:00:20;;;;;;;31.63;7.13;;;;;;;;;;5144676;27;20074;-59
2022/01/30 13:02:57;;;;;;;29.75;5.88;;;;;;;;;;5146398;27;20063;-58
2022/01/30 13:05:24;;;;;;;41.92;5.70;;;;;;;;;;5144367;27;20062;-58
2022/01/30 13:07:57;;;;;;;30.35;7.28;;;;;;;;;;5151964;27;20051;-58
2022/01/30 13:10:24;;;;;;;26.33;4.82;;;;;;;;;;5146495;27;20051;-58
2022/01/30 13:12:50;;;;;;;34.13;5.97;;;;;;;;;;5143649;27;20249;-58
2022/01/30 13:15:18;;;;;;;35.72;6.55;;;;;;;;;;5147691;27;20047;-59
2022/01/30 13:17:44;;;;;;;24.15;5.13;;;;;;;;;;5144113;27;20074;-58
2022/01/30 13:20:12;;;;;;;30.02;5.65;;;;;;;;;;5140474;27;20050;-59
2022/01/30 13:22:40;;;;;;;25.55;4.32;;;;;;;;;;5141757;27;20047;-59
2022/01/30 13:25:10;;;;;;;22.75;4.82;;;;;;;;;;5150623;27;20086;-60
2022/01/30 13:27:37;;;;;;;35.65;5.78;;;;;;;;;;5143992;27;20046;-61
2022/01/30 13:30:04;;;;;;;32.78;5.80;;;;;;;;;;5143866;27;20034;-59
2022/01/30 13:32:30;;;;;;;28.13;5.55;;;;;;;;;;5144845;27;20104;-58
2022/01/30 13:35:00;;;;;;;33.83;5.60;;;;;;;;;;5159838;27;20078;-63
2022/01/30 13:37:26;;;;;;;25.88;4.93;;;;;;;;;;5146422;27;20046;-61
2022/01/30 13:47:50;;;;;;;28.48;5.13;;;;;;;;;;5143699;27;20050;-59
2022/01/30 13:50:18;;;;;;;31.05;5.53;;;;;;;;;;5141187;27;20406;-58
2022/01/30 13:52:44;;;;;;;36.75;6.60;;;;;;;;;;5143486;27;20099;-58
2022/01/30 13:55:11;;;;;;;43.95;5.25;;;;;;;;;;5146162;27;20223;-58
2022/01/30 13:57:38;;;;;;;32.10;6.67;;;;;;;;;;5134940;27;20402;-61
2022/01/30 14:00:04;;;;;;;;;;;;;;;;;;5138230;27;20059;-61
2022/01/30 14:02:30;;;;;;;31.90;5.22;;;;;;;;;;5129852;27;20019;-60
2022/01/30 14:05:16;;;;;;;28.77;5.22;;;;;;;;;;5138715;27;20098;-60
2022/01/30 14:07:43;;;;;;;38.00;7.68;;;;;;;;;;5137350;27;20054;-60
2022/01/30 14:10:09;;;;;;;43.88;7.25;;;;;;;;;;5136804;27;20047;-60
2022/01/30 14:12:39;;;;;;;31.75;6.20;;;;;;;;;;5154389;27;20047;-60
2022/01/30 14:15:08;;;;;;;26.45;4.90;;;;;;;;;;5144074;27;20054;-60
2022/01/30 14:17:40;;;;;;;33.95;6.03;;;;;;;;;;5145547;27;20577;-61
2022/01/30 14:20:08;;;;;;;43.33;7.50;;;;;;;;;;5142764;27;20102;-62
2022/01/30 14:22:35;;;;;;;31.98;6.07;;;;;;;;;;5142298;27;20089;-60
2022/01/30 14:25:03;;;;;;;36.80;6.70;;;;;;;;;;5142906;27;20058;-60
2022/01/30 14:27:34;;;;;;;46.65;6.93;;;;;;;;;;5144391;27;20292;-62
2022/01/30 14:30:04;;;;;;;34.97;6.20;;;;;;;;;;5142838;27;20047;-61
2022/01/30 14:32:31;;;;;;;36.53;5.88;;;;;;;;;;5141942;27;20039;-60
2022/01/30 14:34:57;;;;;;;39.40;6.30;;;;;;;;;;5144534;27;20051;-62
2022/01/30 14:37:23;;;;;;;35.63;6.80;;;;;;;;;;5143481;27;20326;-60
2022/01/30 14:39:53;;;;;;;38.28;5.00;;;;;;;;;;5139727;27;20050;-66
2022/01/30 14:42:20;;;;;;;32.22;6.65;;;;;;;;;;5145408;27;20063;-58
2022/01/30 14:44:46;;;;;;;37.05;7.78;;;;;;;;;;5148090;27;20181;-58
2022/01/30 14:47:12;;;;;;;43.22;5.80;;;;;;;;;;5142105;27;20074;-58
2022/01/30 14:49:39;;;;;;;45.88;5.97;;;;;;;;;;5142754;27;20422;-58
2022/01/30 14:52:05;;;;;;;39.42;6.10;;;;;;;;;;5145930;27;20607;-58
2022/01/30 14:54:32;;;;;;;45.15;6.07;;;;;;;;;;5147232;27;20084;-58
2022/01/30 14:56:58;;;;;;;37.42;5.15;;;;;;;;;;5145964;27;20043;-59
2022/01/30 14:59:24;;;;;;;42.47;6.18;;;;;;;;;;5146619;27;20126;-60
2022/01/30 15:01:51;;;;;;;33.70;6.53;;;;;;;;;;5147192;27;20048;-60
2022/01/30 15:04:17;;;;;;;36.00;5.93;;;;;;;;;;5149687;27;20494;-60
2022/01/30 15:06:43;;;;;;;37.47;7.05;;;;;;;;;;5147875;27;20051;-60
2022/01/30 15:09:10;;;;;;;37.40;5.97;;;;;;;;;;5148669;27;20051;-60
2022/01/30 15:11:36;;;;;;;46.35;8.23;;;;;;;;;;5146652;27;20043;-60
2022/01/30 15:14:03;;;;;;;49.25;7.32;;;;;;;;;;5144540;27;20039;-60
2022/01/30 15:16:47;;;;;;;42.47;7.13;;;;;;;;;;5147058;27;20055;-61
2022/01/30 15:19:13;;;;;;;48.92;6.95;;;;;;;;;;5147982;27;20440;-61
2022/01/30 15:21:40;;;;;;;52.00;8.45;;;;;;;;;;5143931;27;20050;-64
2022/01/30 15:24:07;;;;;;;47.75;7.15;;;;;;;;;;5143263;27;20045;-60
2022/01/30 15:26:33;;;;;;;43.25;7.53;;;;;;;;;;5150861;27;20126;-60
2022/01/30 15:29:00;;;;;;;37.20;6.70;;;;;;;;;;5152924;27;20039;-62
2022/01/30 15:31:26;;;;;;;40.88;7.35;;;;;;;;;;5146158;27;20576;-61
2022/01/30 15:33:52;;;;;;;51.60;7.43;;;;;;;;;;5147307;27;20045;-61
2022/01/30 15:36:18;;;;;;;57.28;8.38;;;;;;;;;;5145933;27;20119;-63